createdAt,value
2018-06-23T01:30:08.486Z,0.00
2018-06-23T01:30:09.053Z,0.00
2018-06-23T01:30:09.654Z,0.00
2018-06-23T01:30:10.252Z,0.00
2018-06-23T01:30:10.852Z,0.00
2018-06-23T01:30:11.453Z,0.00
2018-06-23T01:30:12.051Z,0.00
2018-06-23T01:30:12.652Z,0.00
2018-06-23T01:31:06.131Z,0.00
2018-06-23T01:31:06.705Z,0.00
2018-06-23T01:31:07.304Z,0.00
2018-06-23T01:31:07.903Z,0.00
2018-06-23T01:31:08.503Z,0.00
2018-06-23T01:31:09.106Z,0.00
2018-06-23T01:31:09.704Z,0.00
2018-06-23T01:31:10.302Z,0.00
2018-06-23T01:32:04.370Z,0.00
2018-06-23T01:32:04.880Z,0.00
2018-06-23T01:32:05.473Z,0.00
2018-06-23T01:32:06.074Z,0.00
2018-06-23T01:32:06.673Z,0.00
2018-06-23T01:32:07.274Z,0.00
2018-06-23T01:32:07.874Z,0.00
2018-06-23T01:33:01.457Z,0.00
2018-06-23T01:33:02.009Z,0.00
2018-06-23T01:33:02.610Z,0.00
2018-06-23T01:33:03.209Z,0.00
2018-06-23T01:33:03.809Z,0.00
2018-06-23T01:33:04.409Z,0.00
2018-06-23T01:33:05.009Z,0.00
2018-06-23T01:33:05.608Z,0.00
2018-06-23T01:33:59.088Z,0.00
2018-06-23T01:33:59.661Z,0.00
2018-06-23T01:34:00.260Z,0.00
2018-06-23T01:34:00.860Z,0.00
2018-06-23T01:34:01.461Z,0.00
2018-06-23T01:34:02.063Z,0.00
2018-06-23T01:34:02.661Z,0.00
2018-06-23T01:34:03.259Z,0.00
2018-06-23T01:34:57.761Z,0.00
2018-06-23T01:34:58.340Z,0.00
2018-06-23T01:34:58.936Z,0.00
2018-06-23T01:34:59.537Z,0.00
2018-06-23T01:35:00.136Z,0.00
2018-06-23T01:35:00.734Z,0.00
2018-06-23T01:35:01.336Z,0.00
2018-06-23T01:35:01.936Z,0.00
2018-06-23T01:35:55.417Z,0.00
2018-06-23T01:35:55.989Z,0.00
2018-06-23T01:35:56.591Z,0.00
2018-06-23T01:35:57.189Z,0.00
2018-06-23T01:35:57.788Z,0.00
2018-06-23T01:35:58.388Z,0.00
2018-06-23T01:35:58.987Z,0.00
2018-06-23T01:35:59.588Z,0.00
2018-06-23T01:36:53.068Z,0.00
2018-06-23T01:36:53.640Z,0.00
2018-06-23T01:36:54.246Z,0.00
2018-06-23T01:36:54.839Z,0.00
2018-06-23T01:36:55.440Z,0.00
2018-06-23T01:36:56.040Z,0.00
2018-06-23T01:36:56.670Z,0.00
2018-06-23T01:36:57.239Z,0.00
2018-06-23T01:37:50.721Z,0.00
2018-06-23T01:37:51.294Z,0.00
2018-06-23T01:37:51.892Z,0.00
2018-06-23T01:37:52.492Z,0.00
2018-06-23T01:37:53.093Z,0.00
2018-06-23T01:37:53.693Z,0.00
2018-06-23T01:37:54.291Z,0.00
2018-06-23T01:37:54.890Z,0.00
2018-06-23T01:38:48.373Z,0.00
2018-06-23T01:38:48.944Z,0.00
2018-06-23T01:38:49.545Z,0.00
2018-06-23T01:38:50.145Z,0.00
2018-06-23T01:38:50.745Z,0.00
2018-06-23T01:38:51.344Z,0.00
2018-06-23T01:38:51.945Z,0.00
2018-06-23T01:38:52.547Z,0.00
2018-06-23T01:39:46.024Z,0.00
2018-06-23T01:39:46.597Z,0.00
2018-06-23T01:39:47.202Z,0.00
2018-06-23T01:39:47.796Z,0.00
2018-06-23T01:39:48.397Z,0.00
2018-06-23T01:39:48.995Z,0.00
2018-06-23T01:39:49.597Z,0.00
2018-06-23T01:39:50.196Z,0.00
2018-06-23T01:40:43.675Z,0.00
2018-06-23T01:40:44.249Z,0.00
2018-06-23T01:40:44.851Z,0.00
2018-06-23T01:40:45.447Z,0.00
2018-06-23T01:40:46.047Z,0.00
2018-06-23T01:40:46.648Z,0.00
2018-06-23T01:40:47.247Z,0.00
2018-06-23T01:40:47.848Z,0.00
2018-06-23T01:41:41.333Z,0.00
2018-06-23T01:41:41.910Z,0.00
2018-06-23T01:41:42.499Z,0.00
2018-06-23T01:41:43.098Z,0.00
2018-06-23T01:41:43.699Z,0.00
2018-06-23T01:41:44.299Z,0.00
2018-06-23T01:41:44.898Z,0.00
2018-06-23T01:41:45.498Z,0.00
2018-06-23T01:42:38.980Z,0.00
2018-06-23T01:42:39.558Z,0.00
2018-06-23T01:42:40.151Z,0.00
2018-06-23T01:42:40.752Z,0.00
2018-06-23T01:42:41.352Z,0.00
2018-06-23T01:42:41.953Z,0.00
2018-06-23T01:42:42.553Z,0.00
2018-06-23T01:42:43.151Z,0.00
2018-06-23T01:43:36.633Z,0.00
2018-06-23T01:43:37.205Z,0.00
2018-06-23T01:43:37.806Z,0.00
2018-06-23T01:43:38.403Z,0.00
2018-06-23T01:43:39.003Z,0.00
2018-06-23T01:43:39.604Z,0.00
2018-06-23T01:43:40.204Z,0.00
2018-06-23T01:43:40.806Z,0.00
2018-06-23T01:44:34.284Z,0.00
2018-06-23T01:44:34.857Z,0.00
2018-06-23T01:44:35.456Z,0.00
2018-06-23T01:44:36.057Z,0.00
2018-06-23T01:44:36.658Z,0.00
2018-06-23T01:44:37.256Z,0.00
2018-06-23T01:44:37.855Z,0.00
2018-06-23T01:44:38.455Z,0.00
2018-06-23T01:45:31.936Z,0.00
2018-06-23T01:45:32.506Z,0.00
2018-06-23T01:45:33.107Z,0.00
2018-06-23T01:45:33.709Z,0.00
2018-06-23T01:45:34.306Z,0.00
2018-06-23T01:45:34.906Z,0.00
2018-06-23T01:45:35.506Z,0.00
2018-06-23T01:45:36.110Z,0.00
2018-06-23T01:46:30.611Z,0.00
2018-06-23T01:46:31.184Z,0.00
2018-06-23T01:46:31.785Z,0.00
2018-06-23T01:46:32.382Z,0.00
2018-06-23T01:46:32.982Z,0.00
2018-06-23T01:46:33.586Z,0.00
2018-06-23T01:46:34.182Z,0.00
2018-06-23T01:46:34.787Z,0.00
2018-06-23T01:47:29.287Z,0.00
2018-06-23T01:47:29.860Z,0.00
2018-06-23T01:47:30.459Z,0.00
2018-06-23T01:47:31.060Z,0.00
2018-06-23T01:47:31.659Z,0.00
2018-06-23T01:47:32.258Z,0.00
2018-06-23T01:47:32.857Z,0.00
2018-06-23T01:47:33.461Z,0.00
2018-06-23T01:48:27.962Z,0.00
2018-06-23T01:48:28.532Z,0.00
2018-06-23T01:48:29.134Z,0.00
2018-06-23T01:48:29.733Z,0.00
2018-06-23T01:48:30.332Z,0.00
2018-06-23T01:48:30.933Z,0.00
2018-06-23T01:48:31.533Z,0.00
2018-06-23T01:48:32.132Z,0.00
2018-06-23T01:49:26.642Z,0.00
2018-06-23T01:49:27.209Z,0.00
2018-06-23T01:49:27.809Z,0.00
2018-06-23T01:49:28.418Z,0.00
2018-06-23T01:49:29.010Z,0.00
2018-06-23T01:49:29.609Z,0.00
2018-06-23T01:49:30.210Z,0.00
2018-06-23T01:49:30.809Z,0.00
2018-06-23T01:50:24.291Z,0.00
2018-06-23T01:50:24.863Z,0.00
2018-06-23T01:50:25.462Z,0.00
2018-06-23T01:50:26.062Z,0.00
2018-06-23T01:50:26.661Z,0.00
2018-06-23T01:50:27.261Z,0.00
2018-06-23T01:50:27.861Z,0.00
2018-06-23T01:50:28.461Z,0.00
2018-06-23T01:51:21.942Z,0.00
2018-06-23T01:51:22.518Z,0.00
2018-06-23T01:51:23.117Z,0.00
2018-06-23T01:51:23.714Z,0.00
2018-06-23T01:51:24.313Z,0.00
2018-06-23T01:51:24.914Z,0.00
2018-06-23T01:51:25.513Z,0.00
2018-06-23T01:51:26.114Z,0.00
2018-06-23T01:52:20.616Z,0.00
2018-06-23T01:52:21.188Z,0.00
2018-06-23T01:52:21.788Z,0.00
2018-06-23T01:52:22.388Z,0.00
2018-06-23T01:52:22.987Z,0.00
2018-06-23T01:52:23.589Z,0.00
2018-06-23T01:52:24.189Z,0.00
2018-06-23T01:52:24.786Z,0.00
2018-06-23T01:53:18.269Z,0.00
2018-06-23T01:53:18.841Z,0.00
2018-06-23T01:53:19.441Z,0.00
2018-06-23T01:53:20.043Z,0.00
2018-06-23T01:53:20.640Z,0.00
2018-06-23T01:53:21.240Z,0.00
2018-06-23T01:53:21.840Z,0.00
2018-06-23T01:53:22.442Z,0.00
2018-06-23T01:54:15.921Z,0.00
2018-06-23T01:54:16.493Z,0.00
2018-06-23T01:54:17.094Z,0.00
2018-06-23T01:54:17.692Z,0.00
2018-06-23T01:54:18.293Z,0.00
2018-06-23T01:54:18.893Z,0.00
2018-06-23T01:54:19.493Z,0.00
2018-06-23T01:54:20.094Z,0.00
2018-06-23T01:55:13.572Z,0.00
2018-06-23T01:55:14.146Z,0.00
2018-06-23T01:55:14.745Z,0.00
2018-06-23T01:55:15.348Z,0.00
2018-06-23T01:55:15.945Z,0.00
2018-06-23T01:55:16.545Z,0.00
2018-06-23T01:55:17.144Z,0.00
2018-06-23T01:55:17.746Z,0.00
2018-06-23T01:56:11.316Z,0.00
2018-06-23T01:56:11.819Z,0.00
2018-06-23T01:56:12.419Z,0.00
2018-06-23T01:56:13.019Z,0.00
2018-06-23T01:56:13.620Z,0.00
2018-06-23T01:56:14.270Z,0.00
2018-06-23T01:56:14.817Z,0.00
2018-06-23T01:56:15.419Z,0.00
2018-06-23T01:57:09.898Z,0.00
2018-06-23T01:57:10.471Z,0.00
2018-06-23T01:57:11.071Z,0.00
2018-06-23T01:57:11.671Z,0.00
2018-06-23T01:57:12.271Z,0.00
2018-06-23T01:57:12.870Z,0.00
2018-06-23T01:57:13.470Z,0.00
2018-06-23T01:57:14.069Z,0.00
2018-06-23T01:58:08.573Z,0.00
2018-06-23T01:58:09.151Z,0.00
2018-06-23T01:59:23.217Z,0.00
2018-06-23T01:59:23.722Z,0.00
2018-06-23T01:59:24.320Z,0.00
2018-06-23T01:59:24.920Z,0.00
2018-06-23T01:59:25.520Z,0.00
2018-06-23T01:59:26.121Z,0.00
2018-06-23T01:59:26.721Z,0.00
2018-06-23T02:00:21.185Z,0.00
2018-06-23T02:00:21.756Z,0.00
2018-06-23T02:00:22.356Z,0.00
2018-06-23T02:00:22.955Z,0.00
2018-06-23T02:00:23.555Z,0.00
2018-06-23T02:00:24.156Z,0.00
2018-06-23T02:00:24.755Z,0.00
2018-06-23T02:00:25.359Z,0.00
2018-06-23T02:01:19.860Z,0.00
2018-06-23T02:01:20.432Z,0.00
2018-06-23T02:01:21.030Z,0.00
2018-06-23T02:01:21.631Z,0.00
2018-06-23T02:01:22.232Z,0.00
2018-06-23T02:01:22.830Z,0.00
2018-06-23T02:01:23.431Z,0.00
2018-06-23T02:01:24.030Z,0.00
2018-06-23T02:02:18.536Z,0.00
2018-06-23T02:02:19.108Z,0.00
2018-06-23T02:02:19.707Z,0.00
2018-06-23T02:02:20.308Z,0.00
2018-06-23T02:02:20.906Z,0.00
2018-06-23T02:02:21.508Z,0.00
2018-06-23T02:02:22.107Z,0.00
2018-06-23T02:02:22.709Z,0.00
2018-06-23T02:03:17.211Z,0.00
2018-06-23T02:03:17.784Z,0.00
2018-06-23T02:03:18.383Z,0.00
2018-06-23T02:03:18.984Z,0.00
2018-06-23T02:03:19.584Z,0.00
2018-06-23T02:03:20.184Z,0.00
2018-06-23T02:03:20.784Z,0.00
2018-06-23T02:03:21.387Z,0.00
2018-06-23T02:04:15.890Z,0.00
2018-06-23T02:04:16.458Z,0.00
2018-06-23T02:04:17.059Z,0.00
2018-06-23T02:04:17.659Z,0.00
2018-06-23T02:04:18.258Z,0.00
2018-06-23T02:04:18.858Z,0.00
2018-06-23T02:04:19.458Z,0.00
2018-06-23T02:04:20.060Z,0.00
2018-06-23T02:05:14.561Z,0.00
2018-06-23T02:05:15.142Z,0.00
2018-06-23T02:05:15.734Z,0.00
2018-06-23T02:05:16.334Z,0.00
2018-06-23T02:05:16.935Z,0.00
2018-06-23T02:05:17.535Z,0.00
2018-06-23T02:05:18.134Z,0.00
2018-06-23T02:05:18.735Z,0.00
2018-06-23T02:06:13.239Z,0.00
2018-06-23T02:06:13.810Z,0.00
2018-06-23T02:06:14.417Z,0.00
2018-06-23T02:06:15.011Z,0.00
2018-06-23T02:06:15.610Z,0.00
2018-06-23T02:06:16.209Z,0.00
2018-06-23T02:06:16.810Z,0.00
2018-06-23T02:06:17.411Z,0.00
2018-06-23T02:07:11.915Z,0.00
2018-06-23T02:07:12.486Z,0.00
2018-06-23T02:07:13.086Z,0.00
2018-06-23T02:07:13.686Z,0.00
2018-06-23T02:07:14.288Z,0.00
2018-06-23T02:07:14.885Z,0.00
2018-06-23T02:07:15.486Z,0.00
2018-06-23T02:07:16.089Z,0.00
2018-06-23T02:08:10.590Z,0.00
2018-06-23T02:08:11.161Z,0.00
2018-06-23T02:08:11.763Z,0.00
2018-06-23T02:08:12.362Z,0.00
2018-06-23T02:08:12.962Z,0.00
2018-06-23T02:08:13.561Z,0.00
2018-06-23T02:08:14.162Z,0.00
2018-06-23T02:08:14.763Z,0.00
2018-06-23T02:09:08.242Z,0.00
2018-06-23T02:09:08.814Z,0.00
2018-06-23T02:09:09.413Z,0.00
2018-06-23T02:09:10.012Z,0.00
2018-06-23T02:09:10.613Z,0.00
2018-06-23T02:09:11.213Z,0.00
2018-06-23T02:09:11.813Z,0.00
2018-06-23T02:09:12.414Z,0.00
2018-06-23T02:10:05.894Z,0.00
2018-06-23T02:10:06.466Z,0.00
2018-06-23T02:10:07.065Z,0.00
2018-06-23T02:10:07.665Z,0.00
2018-06-23T02:10:08.265Z,0.00
2018-06-23T02:10:08.866Z,0.00
2018-06-23T02:10:09.465Z,0.00
2018-06-23T02:10:10.069Z,0.00
2018-06-23T02:11:04.570Z,0.00
2018-06-23T02:11:05.140Z,0.00
2018-06-23T02:11:05.739Z,0.00
2018-06-23T02:11:06.341Z,0.00
2018-06-23T02:11:06.940Z,0.00
2018-06-23T02:11:07.540Z,0.00
2018-06-23T02:11:08.141Z,0.00
2018-06-23T02:11:08.744Z,0.00
2018-06-23T02:12:03.246Z,0.00
2018-06-23T02:12:03.817Z,0.00
2018-06-23T02:12:04.416Z,0.00
2018-06-23T02:12:05.016Z,0.00
2018-06-23T02:12:05.616Z,0.00
2018-06-23T02:12:06.216Z,0.00
2018-06-23T02:12:06.816Z,0.00
2018-06-23T02:12:07.418Z,0.00
2018-06-23T02:13:00.905Z,0.00
2018-06-23T02:13:01.468Z,0.00
2018-06-23T02:13:02.068Z,0.00
2018-06-23T02:13:02.669Z,0.00
2018-06-23T02:13:03.271Z,0.00
2018-06-23T02:13:03.869Z,0.00
2018-06-23T02:13:04.466Z,0.00
2018-06-23T02:13:05.070Z,0.00
2018-06-23T02:13:58.550Z,0.00
2018-06-23T02:13:59.120Z,0.00
2018-06-23T02:13:59.720Z,0.00
2018-06-23T02:14:00.321Z,0.00
2018-06-23T02:14:00.922Z,0.00
2018-06-23T02:14:01.520Z,0.00
2018-06-23T02:14:02.122Z,0.00
2018-06-23T02:14:02.720Z,0.00
2018-06-23T02:14:57.225Z,0.00
2018-06-23T02:14:57.797Z,0.00
2018-06-23T02:14:58.396Z,0.00
2018-06-23T02:14:58.994Z,0.00
2018-06-23T02:14:59.595Z,0.00
2018-06-23T02:15:00.195Z,0.00
2018-06-23T02:15:00.795Z,0.00
2018-06-23T02:15:01.398Z,0.00
2018-06-23T02:15:54.876Z,0.00
2018-06-23T02:15:55.449Z,0.00
2018-06-23T02:15:56.049Z,0.00
2018-06-23T02:15:56.658Z,0.00
2018-06-23T02:15:57.248Z,0.00
2018-06-23T02:15:57.848Z,0.00
2018-06-23T02:15:58.447Z,0.00
2018-06-23T02:15:59.049Z,0.00
2018-06-23T02:16:53.551Z,0.00
2018-06-23T02:16:54.124Z,0.00
2018-06-23T02:16:54.724Z,0.00
2018-06-23T02:16:55.322Z,0.00
2018-06-23T02:16:55.925Z,0.00
2018-06-23T02:16:56.531Z,0.00
2018-06-23T02:16:57.123Z,0.00
2018-06-23T02:16:57.725Z,0.00
2018-06-23T02:17:51.203Z,0.00
2018-06-23T02:17:51.777Z,0.00
2018-06-23T02:17:52.375Z,0.00
2018-06-23T02:17:52.975Z,0.00
2018-06-23T02:17:53.576Z,0.00
2018-06-23T02:17:54.176Z,0.00
2018-06-23T02:17:54.775Z,0.00
2018-06-23T02:17:55.378Z,0.00
2018-06-23T02:18:48.853Z,0.00
2018-06-23T02:18:49.427Z,0.00
2018-06-23T02:18:50.029Z,0.00
2018-06-23T02:18:50.632Z,0.00
2018-06-23T02:18:51.227Z,0.00
2018-06-23T02:18:51.827Z,0.00
2018-06-23T02:18:52.426Z,0.00
2018-06-23T02:18:53.028Z,0.00
2018-06-23T02:19:47.531Z,0.00
2018-06-23T02:19:48.102Z,0.00
2018-06-23T02:19:48.703Z,0.00
2018-06-23T02:19:49.301Z,0.00
2018-06-23T02:19:49.901Z,0.00
2018-06-23T02:19:50.502Z,0.00
2018-06-23T02:19:51.102Z,0.00
2018-06-23T02:19:51.706Z,0.00
2018-06-23T02:20:45.182Z,0.00
2018-06-23T02:20:45.754Z,0.00
2018-06-23T02:20:46.353Z,0.00
2018-06-23T02:20:46.955Z,0.00
2018-06-23T02:20:47.554Z,0.00
2018-06-23T02:20:48.160Z,0.00
2018-06-23T02:20:48.753Z,0.00
2018-06-23T02:20:49.355Z,0.00
2018-06-23T02:21:43.857Z,0.00
2018-06-23T02:21:44.429Z,0.00
2018-06-23T02:21:45.030Z,0.00
2018-06-23T02:21:45.630Z,0.00
2018-06-23T02:21:46.228Z,0.00
2018-06-23T02:21:46.828Z,0.00
2018-06-23T02:21:47.430Z,0.00
2018-06-23T02:21:48.032Z,0.00
2018-06-23T02:22:42.533Z,0.00
2018-06-23T02:22:43.106Z,0.00
2018-06-23T02:22:43.704Z,0.00
2018-06-23T02:22:44.305Z,0.00
2018-06-23T02:22:44.904Z,0.00
2018-06-23T02:22:45.505Z,0.00
2018-06-23T02:22:46.105Z,0.00
2018-06-23T02:22:46.706Z,0.00
2018-06-23T02:23:40.184Z,0.00
2018-06-23T02:23:40.757Z,0.00
2018-06-23T02:23:41.360Z,0.00
2018-06-23T02:23:41.961Z,0.00
2018-06-23T02:23:42.558Z,0.00
2018-06-23T02:23:43.156Z,0.00
2018-06-23T02:23:43.756Z,0.00
2018-06-23T02:23:44.358Z,0.00
2018-06-23T02:24:37.838Z,0.00
2018-06-23T02:24:38.409Z,0.00
2018-06-23T02:24:39.009Z,0.00
2018-06-23T02:24:39.609Z,0.00
2018-06-23T02:24:40.209Z,0.00
2018-06-23T02:24:40.809Z,0.00
2018-06-23T02:24:41.409Z,0.00
2018-06-23T02:24:42.012Z,0.00
2018-06-23T02:25:36.513Z,0.00
2018-06-23T02:25:37.085Z,0.00
2018-06-23T02:25:37.685Z,0.00
2018-06-23T02:25:38.284Z,0.00
2018-06-23T02:25:38.885Z,0.00
2018-06-23T02:25:39.484Z,0.00
2018-06-23T02:25:40.084Z,0.00
2018-06-23T02:25:40.684Z,0.00
2018-06-23T02:26:35.191Z,4.00
2018-06-23T02:26:35.760Z,4.00
2018-06-23T02:26:36.360Z,4.00
2018-06-23T02:26:36.960Z,4.00
2018-06-23T02:26:37.559Z,4.00
2018-06-23T02:26:38.160Z,4.00
2018-06-23T02:26:38.760Z,4.00
2018-06-23T02:26:39.360Z,4.00
2018-06-23T02:27:33.865Z,0.00
2018-06-23T02:27:34.436Z,0.00
2018-06-23T02:27:35.037Z,4.00
2018-06-23T02:27:35.636Z,0.00
2018-06-23T02:27:36.238Z,0.00
2018-06-23T02:27:36.835Z,0.00
2018-06-23T02:27:37.435Z,0.00
2018-06-23T02:27:38.037Z,0.00
2018-06-23T02:28:32.539Z,0.00
2018-06-23T02:28:33.112Z,4.00
2018-06-23T02:28:33.711Z,0.00
2018-06-23T02:28:34.312Z,0.00
2018-06-23T02:28:34.911Z,4.00
2018-06-23T02:28:35.511Z,0.00
2018-06-23T02:28:36.111Z,4.00
2018-06-23T02:28:36.714Z,0.00
2018-06-23T02:29:30.192Z,0.00
2018-06-23T02:29:30.764Z,0.00
2018-06-23T02:29:31.364Z,0.00
2018-06-23T02:29:31.963Z,0.00
2018-06-23T02:29:32.569Z,0.00
2018-06-23T02:29:33.166Z,0.00
2018-06-23T02:29:33.761Z,0.00
2018-06-23T02:29:34.365Z,0.00
2018-06-23T02:30:27.844Z,4.00
2018-06-23T02:30:28.418Z,4.00
2018-06-23T02:30:29.016Z,4.00
2018-06-23T02:30:29.615Z,4.00
2018-06-23T02:30:30.214Z,4.00
2018-06-23T02:30:30.815Z,4.00
2018-06-23T02:30:31.414Z,4.00
2018-06-23T02:30:32.019Z,4.00
2018-06-23T02:31:26.518Z,4.00
2018-06-23T02:31:27.091Z,4.00
2018-06-23T02:31:27.693Z,4.00
2018-06-23T02:31:28.291Z,4.00
2018-06-23T02:31:28.891Z,4.00
2018-06-23T02:31:29.489Z,4.00
2018-06-23T02:31:30.092Z,4.00
2018-06-23T02:31:30.691Z,4.00
2018-06-23T02:32:25.194Z,4.00
2018-06-23T02:32:25.767Z,0.00
2018-06-23T02:32:26.368Z,0.00
2018-06-23T02:32:26.967Z,4.00
2018-06-23T02:32:27.565Z,4.00
2018-06-23T02:32:28.167Z,4.00
2018-06-23T02:32:28.765Z,0.00
2018-06-23T02:32:29.371Z,0.00
2018-06-23T02:33:22.846Z,0.00
2018-06-23T02:33:23.440Z,0.00
2018-06-23T02:33:24.018Z,0.00
2018-06-23T02:33:24.618Z,0.00
2018-06-23T02:33:25.218Z,0.00
2018-06-23T02:33:25.818Z,0.00
2018-06-23T02:33:26.417Z,0.00
2018-06-23T02:33:27.021Z,4.00
2018-06-23T02:34:21.521Z,4.00
2018-06-23T02:34:22.095Z,4.00
2018-06-23T02:34:22.694Z,4.00
2018-06-23T02:34:23.294Z,4.00
2018-06-23T02:34:23.892Z,4.00
2018-06-23T02:34:24.492Z,4.00
2018-06-23T02:34:25.095Z,4.00
2018-06-23T02:34:25.694Z,4.00
2018-06-23T02:35:19.177Z,4.00
2018-06-23T02:35:19.747Z,4.00
2018-06-23T02:35:20.347Z,4.00
2018-06-23T02:35:20.961Z,4.00
2018-06-23T02:35:21.548Z,4.00
2018-06-23T02:35:22.148Z,4.00
2018-06-23T02:35:22.746Z,4.00
2018-06-23T02:35:23.348Z,4.00
2018-06-23T02:36:16.825Z,4.00
2018-06-23T02:36:17.398Z,4.00
2018-06-23T02:36:17.997Z,4.00
2018-06-23T02:36:18.601Z,8.00
2018-06-23T02:36:19.197Z,4.00
2018-06-23T02:36:19.797Z,8.00
2018-06-23T02:36:20.398Z,8.00
2018-06-23T02:36:20.998Z,8.00
2018-06-23T02:37:15.502Z,8.00
2018-06-23T02:37:16.074Z,8.00
2018-06-23T02:37:16.674Z,8.00
2018-06-23T02:37:17.274Z,8.00
2018-06-23T02:37:17.872Z,8.00
2018-06-23T02:37:18.473Z,8.00
2018-06-23T02:37:19.078Z,8.00
2018-06-23T02:37:19.673Z,8.00
2018-06-23T02:38:13.153Z,8.00
2018-06-23T02:38:13.726Z,8.00
2018-06-23T02:38:14.325Z,8.00
2018-06-23T02:38:14.925Z,8.00
2018-06-23T02:38:15.526Z,8.00
2018-06-23T02:38:16.125Z,8.00
2018-06-23T02:38:16.726Z,8.00
2018-06-23T02:38:17.326Z,8.00
2018-06-23T02:39:11.829Z,12.00
2018-06-23T02:39:12.399Z,12.00
2018-06-23T02:39:13.000Z,12.00
2018-06-23T02:39:13.600Z,12.00
2018-06-23T02:39:14.200Z,12.00
2018-06-23T02:39:14.800Z,12.00
2018-06-23T02:39:15.400Z,12.00
2018-06-23T02:39:16.001Z,12.00
2018-06-23T02:40:10.503Z,12.00
2018-06-23T02:40:11.076Z,12.00
2018-06-23T02:40:11.687Z,12.00
2018-06-23T02:40:12.275Z,8.00
2018-06-23T02:40:12.880Z,8.00
2018-06-23T02:40:13.474Z,8.00
2018-06-23T02:40:14.073Z,8.00
2018-06-23T02:40:14.672Z,12.00
2018-06-23T02:41:08.158Z,16.00
2018-06-23T02:41:08.731Z,16.00
2018-06-23T02:41:09.328Z,16.00
2018-06-23T02:41:09.929Z,16.00
2018-06-23T02:41:10.529Z,16.00
2018-06-23T02:41:11.137Z,16.00
2018-06-23T02:41:11.727Z,16.00
2018-06-23T02:41:12.330Z,16.00
2018-06-23T02:42:06.832Z,28.00
2018-06-23T02:42:07.404Z,28.00
2018-06-23T02:42:08.004Z,32.00
2018-06-23T02:42:08.603Z,32.00
2018-06-23T02:42:09.203Z,28.00
2018-06-23T02:42:09.803Z,28.00
2018-06-23T02:42:10.409Z,28.00
2018-06-23T02:42:11.004Z,32.00
2018-06-23T02:43:04.483Z,40.00
2018-06-23T02:43:05.055Z,40.00
2018-06-23T02:43:05.657Z,44.00
2018-06-23T02:43:06.256Z,44.00
2018-06-23T02:43:06.855Z,44.00
2018-06-23T02:43:07.454Z,44.00
2018-06-23T02:43:08.058Z,44.00
2018-06-23T02:43:08.658Z,44.00
2018-06-23T02:44:03.156Z,52.00
2018-06-23T02:44:03.731Z,52.00
2018-06-23T02:44:04.383Z,52.00
2018-06-23T02:44:04.931Z,56.00
2018-06-23T02:44:05.534Z,52.00
2018-06-23T02:44:06.131Z,52.00
2018-06-23T02:44:06.732Z,52.00
2018-06-23T02:44:07.331Z,52.00
2018-06-23T02:45:01.835Z,56.00
2018-06-23T02:45:02.407Z,60.00
2018-06-23T02:45:03.006Z,60.00
2018-06-23T02:45:03.605Z,60.00
2018-06-23T02:45:04.205Z,60.00
2018-06-23T02:45:04.809Z,56.00
2018-06-23T02:45:05.406Z,56.00
2018-06-23T02:45:06.008Z,56.00
2018-06-23T02:46:00.511Z,60.00
2018-06-23T02:46:01.082Z,60.00
2018-06-23T02:46:01.682Z,60.00
2018-06-23T02:46:02.288Z,60.00
2018-06-23T02:46:02.882Z,60.00
2018-06-23T02:46:03.483Z,60.00
2018-06-23T02:46:04.083Z,64.00
2018-06-23T02:46:04.684Z,64.00
2018-06-23T02:46:58.169Z,64.00
2018-06-23T02:46:58.739Z,68.00
2018-06-23T02:46:59.335Z,68.00
2018-06-23T02:46:59.934Z,68.00
2018-06-23T02:47:00.540Z,68.00
2018-06-23T02:47:01.134Z,68.00
2018-06-23T02:47:01.735Z,68.00
2018-06-23T02:47:02.335Z,64.00
2018-06-23T02:47:55.815Z,60.00
2018-06-23T02:47:56.388Z,56.00
2018-06-23T02:47:56.987Z,60.00
2018-06-23T02:47:57.585Z,60.00
2018-06-23T02:47:58.186Z,60.00
2018-06-23T02:47:58.790Z,56.00
2018-06-23T02:47:59.386Z,60.00
2018-06-23T02:47:59.987Z,60.00
2018-06-23T02:48:53.466Z,48.00
2018-06-23T02:48:54.039Z,48.00
2018-06-23T02:48:54.637Z,48.00
2018-06-23T02:48:55.236Z,48.00
2018-06-23T02:48:55.840Z,48.00
2018-06-23T02:48:56.439Z,48.00
2018-06-23T02:48:57.036Z,48.00
2018-06-23T02:48:57.638Z,48.00
2018-06-23T02:49:52.139Z,40.00
2018-06-23T02:49:52.712Z,40.00
2018-06-23T02:49:53.312Z,40.00
2018-06-23T02:49:53.914Z,40.00
2018-06-23T02:49:54.513Z,44.00
2018-06-23T02:49:55.113Z,44.00
2018-06-23T02:49:55.713Z,44.00
2018-06-23T02:49:56.313Z,44.00
2018-06-23T02:50:50.817Z,40.00
2018-06-23T02:50:51.392Z,40.00
2018-06-23T02:50:51.988Z,40.00
2018-06-23T02:50:52.592Z,40.00
2018-06-23T02:50:53.188Z,40.00
2018-06-23T02:50:53.792Z,40.00
2018-06-23T02:50:54.387Z,40.00
2018-06-23T02:50:54.988Z,40.00
2018-06-23T02:51:49.495Z,36.00
2018-06-23T02:51:50.064Z,36.00
2018-06-23T02:51:50.663Z,40.00
2018-06-23T02:51:51.264Z,40.00
2018-06-23T02:51:51.868Z,40.00
2018-06-23T02:51:52.464Z,40.00
2018-06-23T02:51:53.064Z,40.00
2018-06-23T02:51:53.665Z,40.00
2018-06-23T02:52:59.842Z,36.00
2018-06-23T02:53:00.414Z,36.00
2018-06-23T02:53:01.014Z,36.00
2018-06-23T02:53:01.611Z,36.00
2018-06-23T02:53:02.212Z,36.00
2018-06-23T02:53:02.814Z,36.00
2018-06-23T02:53:03.411Z,36.00
2018-06-23T02:53:04.015Z,36.00
2018-06-23T02:53:57.493Z,28.00
2018-06-23T02:53:58.065Z,28.00
2018-06-23T02:53:58.666Z,28.00
2018-06-23T02:53:59.265Z,32.00
2018-06-23T02:53:59.866Z,32.00
2018-06-23T02:54:00.477Z,32.00
2018-06-23T02:54:01.067Z,32.00
2018-06-23T02:54:01.667Z,32.00
2018-06-23T02:54:55.147Z,28.00
2018-06-23T02:54:55.719Z,28.00
2018-06-23T02:54:56.317Z,28.00
2018-06-23T02:54:56.919Z,28.00
2018-06-23T02:54:57.522Z,28.00
2018-06-23T02:54:58.118Z,28.00
2018-06-23T02:54:58.718Z,28.00
2018-06-23T02:54:59.318Z,28.00
2018-06-23T02:55:52.797Z,24.00
2018-06-23T02:55:53.369Z,24.00
2018-06-23T02:55:53.969Z,24.00
2018-06-23T02:55:54.568Z,24.00
2018-06-23T02:55:55.168Z,24.00
2018-06-23T02:55:55.772Z,24.00
2018-06-23T02:55:56.372Z,24.00
2018-06-23T02:55:56.969Z,24.00
2018-06-23T02:56:51.470Z,24.00
2018-06-23T02:56:52.046Z,24.00
2018-06-23T02:56:52.645Z,24.00
2018-06-23T02:56:53.254Z,24.00
2018-06-23T02:56:53.843Z,24.00
2018-06-23T02:56:54.445Z,24.00
2018-06-23T02:56:55.044Z,24.00
2018-06-23T02:56:55.649Z,24.00
2018-06-23T02:57:49.124Z,24.00
2018-06-23T02:57:49.697Z,24.00
2018-06-23T02:57:50.298Z,24.00
2018-06-23T02:57:50.897Z,24.00
2018-06-23T02:57:51.496Z,24.00
2018-06-23T02:57:52.096Z,24.00
2018-06-23T02:57:52.697Z,24.00
2018-06-23T02:57:53.297Z,24.00
2018-06-23T02:58:46.776Z,28.00
2018-06-23T02:58:47.347Z,28.00
2018-06-23T02:58:47.948Z,28.00
2018-06-23T02:58:48.547Z,28.00
2018-06-23T02:58:49.151Z,28.00
2018-06-23T02:58:49.748Z,28.00
2018-06-23T02:58:50.347Z,28.00
2018-06-23T02:58:50.949Z,28.00
2018-06-23T02:59:44.431Z,32.00
2018-06-23T02:59:45.000Z,36.00
2018-06-23T02:59:45.600Z,32.00
2018-06-23T02:59:46.200Z,32.00
2018-06-23T02:59:46.800Z,32.00
2018-06-23T02:59:47.401Z,32.00
2018-06-23T02:59:48.001Z,32.00
2018-06-23T02:59:48.600Z,32.00
2018-06-23T03:00:43.103Z,36.00
2018-06-23T03:00:43.677Z,36.00
2018-06-23T03:00:44.275Z,36.00
2018-06-23T03:00:44.875Z,36.00
2018-06-23T03:00:45.476Z,36.00
2018-06-23T03:00:46.074Z,40.00
2018-06-23T03:00:46.675Z,40.00
2018-06-23T03:00:47.276Z,40.00
2018-06-23T03:01:41.779Z,36.00
2018-06-23T03:01:42.351Z,36.00
2018-06-23T03:01:42.952Z,36.00
2018-06-23T03:01:43.550Z,36.00
2018-06-23T03:01:44.150Z,36.00
2018-06-23T03:01:44.750Z,36.00
2018-06-23T03:01:45.351Z,36.00
2018-06-23T03:01:45.961Z,36.00
2018-06-23T03:02:40.459Z,44.00
2018-06-23T03:02:41.027Z,44.00
2018-06-23T03:02:41.626Z,44.00
2018-06-23T03:02:42.231Z,44.00
2018-06-23T03:02:42.826Z,44.00
2018-06-23T03:02:43.426Z,44.00
2018-06-23T03:02:44.026Z,44.00
2018-06-23T03:02:44.629Z,44.00
2018-06-23T03:03:38.107Z,40.00
2018-06-23T03:03:38.680Z,40.00
2018-06-23T03:03:39.280Z,40.00
2018-06-23T03:03:39.881Z,40.00
2018-06-23T03:03:40.481Z,40.00
2018-06-23T03:03:41.081Z,44.00
2018-06-23T03:03:41.679Z,44.00
2018-06-23T03:03:42.279Z,40.00
2018-06-23T03:04:36.786Z,40.00
2018-06-23T03:04:37.355Z,40.00
2018-06-23T03:04:37.954Z,44.00
2018-06-23T03:04:38.554Z,44.00
2018-06-23T03:04:39.154Z,44.00
2018-06-23T03:04:39.766Z,44.00
2018-06-23T03:04:40.353Z,44.00
2018-06-23T03:04:40.954Z,44.00
2018-06-23T03:05:35.458Z,44.00
2018-06-23T03:05:36.030Z,44.00
2018-06-23T03:05:36.631Z,44.00
2018-06-23T03:05:37.235Z,44.00
2018-06-23T03:05:37.828Z,44.00
2018-06-23T03:05:38.427Z,44.00
2018-06-23T03:05:39.029Z,44.00
2018-06-23T03:05:39.630Z,44.00
2018-06-23T03:06:33.111Z,44.00
2018-06-23T03:06:33.684Z,44.00
2018-06-23T03:06:34.282Z,44.00
2018-06-23T03:06:34.881Z,44.00
2018-06-23T03:06:35.482Z,44.00
2018-06-23T03:06:36.082Z,44.00
2018-06-23T03:06:36.684Z,44.00